Strona główna
METAR-TAF:

METAR-TAF

Lotnisko :

Port lotniczy Santander

Santander, Hiszpania

Szerokość geograficzna: 43-26N, Długość geograficzna: 003-49W, wysokość: 6 m

Aktualna obserwacja pogody

Raport powstał 39 minut temu, godzina 07:30 UTC
Wiatr 1 kt z kierunków zmiennych
Temperatura 20°C
Wilgotność 83%
Ciśnienie 1021 hPa
Widzialność: 7000 m

METAR: LEXJ 280730Z AUTO VRB01KT 7000 NCD 20/17 Q1021

czas: 10:09 (08:09 UTC)

Prognoza

Raport powstał 6 godziny i 9 minut temu, godzina 02:00 UTC
Prognoza ważna od 28 godzina 03 UTC do 29 godzina 03 UTC
Wiatr 9 kt od północny wschód
Widzialność 10 km lub więcej
Brak chmur poniżej 1500 m i brak chmur cumulonimbus
Prawdopodobieństwo 40% :
Przejściowo
od 28 godzina 11 UTC do 28 godzina 17 UTC
Wiatr 15 kt od północny wschód w porywach dochodzący do 25 kt

TAF: LEXJ 280200Z 2803/2903 05009KT CAVOK TX28/2813Z TN16/2806Z PROB40 TEMPO 2811/2817 05015G25KT

Obserwacja i prognoza pogody dla ponad 4000 lotnisk (raport METAR i TAF).

Dostępne stacje oznaczono żółtymi i czerwonymi punktami na mapie.

Najedź kursorem aby zobaczyć nazwę stacji.

Kliknij aby zobaczyć obserwacje i prognozy pogody.

Aby zmienić mapę: kliknij na zielony przycisk z czarnym krzyżykiem, aby powiększyć; na zielony przycisk z myślnikiem, aby pomniejszyć; na zielone strzałki, aby przejść do map sąsiednich.


METAR-TAF: